sensor_id;sensor_type;location;lat;lon;timestamp;temperature;humidity
21261;DHT22;10788;47.930;9.766;2024-02-26T00:01:41;4.40;99.90
21261;DHT22;10788;47.930;9.766;2024-02-26T00:04:09;4.30;99.90
21261;DHT22;10788;47.930;9.766;2024-02-26T00:06:35;4.20;99.90
21261;DHT22;10788;47.930;9.766;2024-02-26T00:09:01;4.20;99.90
21261;DHT22;10788;47.930;9.766;2024-02-26T00:11:28;4.20;99.90
21261;DHT22;10788;47.930;9.766;2024-02-26T00:13:54;4.20;99.90
21261;DHT22;10788;47.930;9.766;2024-02-26T00:16:19;4.20;99.90
21261;DHT22;10788;47.930;9.766;2024-02-26T00:18:45;4.20;99.90
21261;DHT22;10788;47.930;9.766;2024-02-26T00:21:11;4.20;99.90
21261;DHT22;10788;47.930;9.766;2024-02-26T00:23:37;4.20;99.90
21261;DHT22;10788;47.930;9.766;2024-02-26T00:26:03;4.20;99.90
21261;DHT22;10788;47.930;9.766;2024-02-26T00:28:29;4.10;99.90
21261;DHT22;10788;47.930;9.766;2024-02-26T00:30:55;4.20;99.90
21261;DHT22;10788;47.930;9.766;2024-02-26T00:33:22;4.20;99.90
21261;DHT22;10788;47.930;9.766;2024-02-26T00:35:48;4.20;99.90
21261;DHT22;10788;47.930;9.766;2024-02-26T00:38:14;4.20;99.90
21261;DHT22;10788;47.930;9.766;2024-02-26T00:40:40;4.20;99.90
21261;DHT22;10788;47.930;9.766;2024-02-26T00:43:09;4.20;99.90
21261;DHT22;10788;47.930;9.766;2024-02-26T00:45:34;4.20;99.90
21261;DHT22;10788;47.930;9.766;2024-02-26T00:48:00;4.30;99.90
21261;DHT22;10788;47.930;9.766;2024-02-26T00:50:33;4.30;99.90
21261;DHT22;10788;47.930;9.766;2024-02-26T00:52:59;4.30;99.90
21261;DHT22;10788;47.930;9.766;2024-02-26T00:55:25;4.30;99.90
21261;DHT22;10788;47.930;9.766;2024-02-26T00:57:51;4.40;99.90
21261;DHT22;10788;47.930;9.766;2024-02-26T01:00:17;4.30;99.90
21261;DHT22;10788;47.930;9.766;2024-02-26T01:02:42;4.40;99.90
21261;DHT22;10788;47.930;9.766;2024-02-26T01:05:09;4.40;99.90
21261;DHT22;10788;47.930;9.766;2024-02-26T01:07:35;4.40;99.90
21261;DHT22;10788;47.930;9.766;2024-02-26T01:10:04;4.50;99.90
21261;DHT22;10788;47.930;9.766;2024-02-26T01:12:34;4.40;99.90
21261;DHT22;10788;47.930;9.766;2024-02-26T01:15:01;4.50;99.90
21261;DHT22;10788;47.930;9.766;2024-02-26T01:17:28;4.50;99.90
21261;DHT22;10788;47.930;9.766;2024-02-26T01:19:54;4.60;99.90
21261;DHT22;10788;47.930;9.766;2024-02-26T01:22:20;4.80;99.90
21261;DHT22;10788;47.930;9.766;2024-02-26T01:24:46;4.80;99.90
21261;DHT22;10788;47.930;9.766;2024-02-26T01:27:11;4.90;99.90
21261;DHT22;10788;47.930;9.766;2024-02-26T01:29:37;5.00;99.90
21261;DHT22;10788;47.930;9.766;2024-02-26T01:32:03;5.00;99.90
21261;DHT22;10788;47.930;9.766;2024-02-26T01:34:31;5.10;99.90
21261;DHT22;10788;47.930;9.766;2024-02-26T01:36:57;5.10;99.90
21261;DHT22;10788;47.930;9.766;2024-02-26T01:39:22;5.00;99.90
21261;DHT22;10788;47.930;9.766;2024-02-26T01:41:48;5.00;99.90
21261;DHT22;10788;47.930;9.766;2024-02-26T01:44:14;4.90;99.90
21261;DHT22;10788;47.930;9.766;2024-02-26T01:46:40;4.90;99.90
21261;DHT22;10788;47.930;9.766;2024-02-26T01:49:06;4.90;99.90
21261;DHT22;10788;47.930;9.766;2024-02-26T01:51:33;4.90;99.90
21261;DHT22;10788;47.930;9.766;2024-02-26T01:54:00;4.90;99.90
21261;DHT22;10788;47.930;9.766;2024-02-26T01:56:28;4.90;99.90
21261;DHT22;10788;47.930;9.766;2024-02-26T01:58:57;4.90;99.90
21261;DHT22;10788;47.930;9.766;2024-02-26T02:01:25;4.90;99.90
21261;DHT22;10788;47.930;9.766;2024-02-26T02:03:54;4.90;99.90
21261;DHT22;10788;47.930;9.766;2024-02-26T02:06:20;4.80;99.90
21261;DHT22;10788;47.930;9.766;2024-02-26T02:08:46;4.90;99.90
21261;DHT22;10788;47.930;9.766;2024-02-26T02:11:12;4.80;99.90
21261;DHT22;10788;47.930;9.766;2024-02-26T02:13:40;4.80;99.90
21261;DHT22;10788;47.930;9.766;2024-02-26T02:16:06;4.80;99.90
21261;DHT22;10788;47.930;9.766;2024-02-26T02:18:32;4.70;99.90
21261;DHT22;10788;47.930;9.766;2024-02-26T02:21:00;4.70;99.90
21261;DHT22;10788;47.930;9.766;2024-02-26T02:23:26;4.70;99.90
21261;DHT22;10788;47.930;9.766;2024-02-26T02:25:52;4.80;99.90
21261;DHT22;10788;47.930;9.766;2024-02-26T02:28:19;4.80;99.90
21261;DHT22;10788;47.930;9.766;2024-02-26T02:30:45;4.70;99.90
21261;DHT22;10788;47.930;9.766;2024-02-26T02:33:11;4.70;99.90
21261;DHT22;10788;47.930;9.766;2024-02-26T02:35:37;4.70;99.90
21261;DHT22;10788;47.930;9.766;2024-02-26T02:38:03;4.70;99.90
21261;DHT22;10788;47.930;9.766;2024-02-26T02:40:29;4.70;99.90
21261;DHT22;10788;47.930;9.766;2024-02-26T02:42:55;4.70;99.90
21261;DHT22;10788;47.930;9.766;2024-02-26T02:45:20;4.60;99.90
21261;DHT22;10788;47.930;9.766;2024-02-26T02:47:46;4.60;99.90
21261;DHT22;10788;47.930;9.766;2024-02-26T02:50:12;4.60;99.90
21261;DHT22;10788;47.930;9.766;2024-02-26T02:52:37;4.60;99.90
21261;DHT22;10788;47.930;9.766;2024-02-26T02:55:03;4.60;99.90
21261;DHT22;10788;47.930;9.766;2024-02-26T02:57:30;4.60;99.90
21261;DHT22;10788;47.930;9.766;2024-02-26T02:59:56;4.60;99.90
21261;DHT22;10788;47.930;9.766;2024-02-26T03:02:23;4.70;99.90
21261;DHT22;10788;47.930;9.766;2024-02-26T03:04:50;4.70;99.90
21261;DHT22;10788;47.930;9.766;2024-02-26T03:07:16;4.70;99.90
21261;DHT22;10788;47.930;9.766;2024-02-26T03:09:42;4.70;99.90
21261;DHT22;10788;47.930;9.766;2024-02-26T03:12:07;4.60;99.90
21261;DHT22;10788;47.930;9.766;2024-02-26T03:14:33;4.60;99.90
21261;DHT22;10788;47.930;9.766;2024-02-26T03:16:59;4.60;99.90
21261;DHT22;10788;47.930;9.766;2024-02-26T03:19:24;4.60;99.90
21261;DHT22;10788;47.930;9.766;2024-02-26T03:21:50;4.60;99.90
21261;DHT22;10788;47.930;9.766;2024-02-26T03:24:16;4.50;99.90
21261;DHT22;10788;47.930;9.766;2024-02-26T03:26:41;4.50;99.90
21261;DHT22;10788;47.930;9.766;2024-02-26T03:29:07;4.50;99.90
21261;DHT22;10788;47.930;9.766;2024-02-26T03:31:33;4.50;99.90
21261;DHT22;10788;47.930;9.766;2024-02-26T03:33:59;4.60;99.90
21261;DHT22;10788;47.930;9.766;2024-02-26T03:36:24;4.60;99.90
21261;DHT22;10788;47.930;9.766;2024-02-26T03:38:50;4.60;99.90
21261;DHT22;10788;47.930;9.766;2024-02-26T03:41:16;4.60;99.90
21261;DHT22;10788;47.930;9.766;2024-02-26T03:43:41;4.50;99.90
21261;DHT22;10788;47.930;9.766;2024-02-26T03:46:08;4.50;99.90
21261;DHT22;10788;47.930;9.766;2024-02-26T03:48:35;4.50;99.90
21261;DHT22;10788;47.930;9.766;2024-02-26T03:51:00;4.40;99.90
21261;DHT22;10788;47.930;9.766;2024-02-26T03:53:26;4.40;99.90
21261;DHT22;10788;47.930;9.766;2024-02-26T03:55:53;4.40;99.90
21261;DHT22;10788;47.930;9.766;2024-02-26T03:58:20;4.40;99.90
21261;DHT22;10788;47.930;9.766;2024-02-26T04:00:46;4.30;99.90
21261;DHT22;10788;47.930;9.766;2024-02-26T04:03:13;4.30;99.90
21261;DHT22;10788;47.930;9.766;2024-02-26T04:05:39;4.30;99.90
21261;DHT22;10788;47.930;9.766;2024-02-26T04:08:05;4.30;99.90
21261;DHT22;10788;47.930;9.766;2024-02-26T04:10:33;4.30;99.90
21261;DHT22;10788;47.930;9.766;2024-02-26T04:13:00;4.30;99.90
21261;DHT22;10788;47.930;9.766;2024-02-26T04:15:26;4.30;99.90
21261;DHT22;10788;47.930;9.766;2024-02-26T04:17:52;4.30;99.90
21261;DHT22;10788;47.930;9.766;2024-02-26T04:20:20;4.30;99.90
21261;DHT22;10788;47.930;9.766;2024-02-26T04:22:45;4.20;99.90
21261;DHT22;10788;47.930;9.766;2024-02-26T04:25:11;4.30;99.90
21261;DHT22;10788;47.930;9.766;2024-02-26T04:27:37;4.30;99.90
21261;DHT22;10788;47.930;9.766;2024-02-26T04:30:04;4.30;99.90
21261;DHT22;10788;47.930;9.766;2024-02-26T04:32:30;4.30;99.90
21261;DHT22;10788;47.930;9.766;2024-02-26T04:34:56;4.30;99.90
21261;DHT22;10788;47.930;9.766;2024-02-26T04:37:22;4.40;99.90
21261;DHT22;10788;47.930;9.766;2024-02-26T04:39:48;4.30;99.90
21261;DHT22;10788;47.930;9.766;2024-02-26T04:42:13;4.40;99.90
21261;DHT22;10788;47.930;9.766;2024-02-26T04:44:39;4.30;99.90
21261;DHT22;10788;47.930;9.766;2024-02-26T04:47:05;4.30;99.90
21261;DHT22;10788;47.930;9.766;2024-02-26T04:49:31;4.30;99.90
21261;DHT22;10788;47.930;9.766;2024-02-26T04:51:56;4.10;99.90
21261;DHT22;10788;47.930;9.766;2024-02-26T04:54:22;4.10;99.90
21261;DHT22;10788;47.930;9.766;2024-02-26T04:56:48;4.20;99.90
21261;DHT22;10788;47.930;9.766;2024-02-26T04:59:13;4.10;99.90
21261;DHT22;10788;47.930;9.766;2024-02-26T05:01:39;4.20;99.90
21261;DHT22;10788;47.930;9.766;2024-02-26T05:04:05;4.20;99.90
21261;DHT22;10788;47.930;9.766;2024-02-26T05:06:31;4.30;99.90
21261;DHT22;10788;47.930;9.766;2024-02-26T05:08:56;4.30;99.90
21261;DHT22;10788;47.930;9.766;2024-02-26T05:11:22;4.30;99.90
21261;DHT22;10788;47.930;9.766;2024-02-26T05:13:48;4.20;99.90
21261;DHT22;10788;47.930;9.766;2024-02-26T05:16:14;4.20;99.90
21261;DHT22;10788;47.930;9.766;2024-02-26T05:18:39;4.20;99.90
21261;DHT22;10788;47.930;9.766;2024-02-26T05:21:05;4.30;99.90
21261;DHT22;10788;47.930;9.766;2024-02-26T05:23:31;4.40;99.90
21261;DHT22;10788;47.930;9.766;2024-02-26T05:25:56;4.30;99.90
21261;DHT22;10788;47.930;9.766;2024-02-26T05:28:22;4.30;99.90
21261;DHT22;10788;47.930;9.766;2024-02-26T05:30:48;4.30;99.90
21261;DHT22;10788;47.930;9.766;2024-02-26T05:33:14;4.30;99.90
21261;DHT22;10788;47.930;9.766;2024-02-26T05:35:39;4.20;99.90
21261;DHT22;10788;47.930;9.766;2024-02-26T05:38:06;4.30;99.90
21261;DHT22;10788;47.930;9.766;2024-02-26T05:40:31;4.30;99.90
21261;DHT22;10788;47.930;9.766;2024-02-26T05:42:57;4.30;99.90
21261;DHT22;10788;47.930;9.766;2024-02-26T05:45:22;4.30;99.90
21261;DHT22;10788;47.930;9.766;2024-02-26T05:47:48;4.30;99.90
21261;DHT22;10788;47.930;9.766;2024-02-26T05:50:15;4.30;99.90
21261;DHT22;10788;47.930;9.766;2024-02-26T05:52:41;4.30;99.90
21261;DHT22;10788;47.930;9.766;2024-02-26T05:55:07;4.30;99.90
21261;DHT22;10788;47.930;9.766;2024-02-26T05:57:34;4.30;99.90
21261;DHT22;10788;47.930;9.766;2024-02-26T06:00:00;4.30;99.90
21261;DHT22;10788;47.930;9.766;2024-02-26T06:02:38;4.30;99.90
21261;DHT22;10788;47.930;9.766;2024-02-26T06:05:04;4.30;99.90
21261;DHT22;10788;47.930;9.766;2024-02-26T06:07:30;4.30;99.90
21261;DHT22;10788;47.930;9.766;2024-02-26T06:09:55;4.20;99.90
21261;DHT22;10788;47.930;9.766;2024-02-26T06:12:21;4.20;99.90
21261;DHT22;10788;47.930;9.766;2024-02-26T06:14:47;4.20;99.90
21261;DHT22;10788;47.930;9.766;2024-02-26T06:17:12;4.10;99.90
21261;DHT22;10788;47.930;9.766;2024-02-26T06:19:38;4.10;99.90
21261;DHT22;10788;47.930;9.766;2024-02-26T06:22:04;4.10;99.90
21261;DHT22;10788;47.930;9.766;2024-02-26T06:24:30;4.00;99.90
21261;DHT22;10788;47.930;9.766;2024-02-26T06:26:55;4.00;99.90
21261;DHT22;10788;47.930;9.766;2024-02-26T06:29:21;4.00;99.90
21261;DHT22;10788;47.930;9.766;2024-02-26T06:31:46;4.10;99.90
21261;DHT22;10788;47.930;9.766;2024-02-26T06:34:13;4.10;99.90
21261;DHT22;10788;47.930;9.766;2024-02-26T06:36:39;4.00;99.90
21261;DHT22;10788;47.930;9.766;2024-02-26T06:39:05;4.10;99.90
21261;DHT22;10788;47.930;9.766;2024-02-26T06:41:31;4.00;99.90
21261;DHT22;10788;47.930;9.766;2024-02-26T06:43:56;4.00;99.90
21261;DHT22;10788;47.930;9.766;2024-02-26T06:46:22;4.00;99.90
21261;DHT22;10788;47.930;9.766;2024-02-26T06:48:49;4.00;99.90
21261;DHT22;10788;47.930;9.766;2024-02-26T06:51:15;3.90;99.90
21261;DHT22;10788;47.930;9.766;2024-02-26T06:53:41;3.90;99.90
21261;DHT22;10788;47.930;9.766;2024-02-26T06:56:06;3.90;99.90
21261;DHT22;10788;47.930;9.766;2024-02-26T06:58:32;4.00;99.90
21261;DHT22;10788;47.930;9.766;2024-02-26T07:00:58;4.00;99.90
21261;DHT22;10788;47.930;9.766;2024-02-26T07:03:24;4.00;99.90
21261;DHT22;10788;47.930;9.766;2024-02-26T07:05:51;4.00;99.90
21261;DHT22;10788;47.930;9.766;2024-02-26T07:08:17;4.00;99.90
21261;DHT22;10788;47.930;9.766;2024-02-26T07:10:43;4.10;99.90
21261;DHT22;10788;47.930;9.766;2024-02-26T07:13:09;4.10;99.90
21261;DHT22;10788;47.930;9.766;2024-02-26T07:15:35;4.10;99.90
21261;DHT22;10788;47.930;9.766;2024-02-26T07:18:00;4.10;99.90
21261;DHT22;10788;47.930;9.766;2024-02-26T07:20:29;4.10;99.90
21261;DHT22;10788;47.930;9.766;2024-02-26T07:22:56;4.10;99.90
21261;DHT22;10788;47.930;9.766;2024-02-26T07:25:22;4.10;99.90
21261;DHT22;10788;47.930;9.766;2024-02-26T07:27:47;4.20;99.90
21261;DHT22;10788;47.930;9.766;2024-02-26T07:30:13;4.30;99.90
21261;DHT22;10788;47.930;9.766;2024-02-26T07:32:40;4.30;99.90
21261;DHT22;10788;47.930;9.766;2024-02-26T07:35:05;4.30;99.90
21261;DHT22;10788;47.930;9.766;2024-02-26T07:37:31;4.30;99.90
21261;DHT22;10788;47.930;9.766;2024-02-26T07:39:57;4.40;99.90
21261;DHT22;10788;47.930;9.766;2024-02-26T07:42:23;4.40;99.90
21261;DHT22;10788;47.930;9.766;2024-02-26T07:44:48;4.40;99.90
21261;DHT22;10788;47.930;9.766;2024-02-26T07:47:14;4.40;99.90
21261;DHT22;10788;47.930;9.766;2024-02-26T07:49:40;4.50;99.90
21261;DHT22;10788;47.930;9.766;2024-02-26T07:52:06;4.50;99.90
21261;DHT22;10788;47.930;9.766;2024-02-26T07:54:32;4.60;99.90
21261;DHT22;10788;47.930;9.766;2024-02-26T07:56:57;4.70;99.90
21261;DHT22;10788;47.930;9.766;2024-02-26T07:59:23;4.70;99.90
21261;DHT22;10788;47.930;9.766;2024-02-26T08:01:52;4.70;99.90
21261;DHT22;10788;47.930;9.766;2024-02-26T08:04:18;4.70;99.90
21261;DHT22;10788;47.930;9.766;2024-02-26T08:06:44;4.80;99.90
21261;DHT22;10788;47.930;9.766;2024-02-26T08:09:09;5.00;99.90
21261;DHT22;10788;47.930;9.766;2024-02-26T08:11:35;5.20;99.90
21261;DHT22;10788;47.930;9.766;2024-02-26T08:14:01;5.20;99.90
21261;DHT22;10788;47.930;9.766;2024-02-26T08:16:27;5.30;99.90
21261;DHT22;10788;47.930;9.766;2024-02-26T08:18:53;5.40;99.90
21261;DHT22;10788;47.930;9.766;2024-02-26T08:21:18;5.40;99.90
21261;DHT22;10788;47.930;9.766;2024-02-26T08:23:44;5.60;99.90
21261;DHT22;10788;47.930;9.766;2024-02-26T08:26:10;5.80;99.90
21261;DHT22;10788;47.930;9.766;2024-02-26T08:28:40;5.90;99.90
21261;DHT22;10788;47.930;9.766;2024-02-26T08:31:05;5.90;99.90
21261;DHT22;10788;47.930;9.766;2024-02-26T08:33:32;6.00;99.90
21261;DHT22;10788;47.930;9.766;2024-02-26T08:36:02;6.00;99.90
21261;DHT22;10788;47.930;9.766;2024-02-26T08:38:29;6.00;99.90
21261;DHT22;10788;47.930;9.766;2024-02-26T08:40:55;6.10;99.90
21261;DHT22;10788;47.930;9.766;2024-02-26T08:43:21;6.10;99.90
21261;DHT22;10788;47.930;9.766;2024-02-26T08:45:46;6.10;99.90
21261;DHT22;10788;47.930;9.766;2024-02-26T08:48:12;6.10;99.90
21261;DHT22;10788;47.930;9.766;2024-02-26T08:50:38;6.10;99.90
21261;DHT22;10788;47.930;9.766;2024-02-26T08:53:03;6.10;99.90
21261;DHT22;10788;47.930;9.766;2024-02-26T08:55:29;6.10;99.90
21261;DHT22;10788;47.930;9.766;2024-02-26T08:57:55;6.20;99.90
21261;DHT22;10788;47.930;9.766;2024-02-26T09:00:21;6.20;99.90
21261;DHT22;10788;47.930;9.766;2024-02-26T09:02:49;6.30;99.90
21261;DHT22;10788;47.930;9.766;2024-02-26T09:05:15;6.40;99.90
21261;DHT22;10788;47.930;9.766;2024-02-26T09:07:41;6.50;99.90
21261;DHT22;10788;47.930;9.766;2024-02-26T09:10:07;6.50;99.90
21261;DHT22;10788;47.930;9.766;2024-02-26T09:12:36;6.50;99.90
21261;DHT22;10788;47.930;9.766;2024-02-26T09:15:03;6.50;99.90
21261;DHT22;10788;47.930;9.766;2024-02-26T09:17:29;6.60;99.90
21261;DHT22;10788;47.930;9.766;2024-02-26T09:19:55;6.70;99.90
21261;DHT22;10788;47.930;9.766;2024-02-26T09:22:20;6.90;99.90
21261;DHT22;10788;47.930;9.766;2024-02-26T09:24:46;7.30;99.90
21261;DHT22;10788;47.930;9.766;2024-02-26T09:27:12;7.70;99.90
21261;DHT22;10788;47.930;9.766;2024-02-26T09:29:37;8.00;99.90
21261;DHT22;10788;47.930;9.766;2024-02-26T09:32:03;8.30;99.90
21261;DHT22;10788;47.930;9.766;2024-02-26T09:34:29;8.40;99.90
21261;DHT22;10788;47.930;9.766;2024-02-26T09:36:55;8.50;99.90
21261;DHT22;10788;47.930;9.766;2024-02-26T09:39:20;8.60;99.90
21261;DHT22;10788;47.930;9.766;2024-02-26T09:41:48;8.80;99.90
21261;DHT22;10788;47.930;9.766;2024-02-26T09:44:20;9.20;99.90
21261;DHT22;10788;47.930;9.766;2024-02-26T09:46:48;9.70;99.90
21261;DHT22;10788;47.930;9.766;2024-02-26T09:49:15;10.20;99.90
21261;DHT22;10788;47.930;9.766;2024-02-26T09:51:42;10.70;99.90
21261;DHT22;10788;47.930;9.766;2024-02-26T09:54:09;11.00;99.90
21261;DHT22;10788;47.930;9.766;2024-02-26T09:56:38;11.20;99.90
21261;DHT22;10788;47.930;9.766;2024-02-26T09:59:08;11.40;99.90
21261;DHT22;10788;47.930;9.766;2024-02-26T10:01:37;11.40;99.90
21261;DHT22;10788;47.930;9.766;2024-02-26T10:04:04;11.40;99.90
21261;DHT22;10788;47.930;9.766;2024-02-26T10:06:30;11.40;99.90
21261;DHT22;10788;47.930;9.766;2024-02-26T10:08:56;11.30;99.90
21261;DHT22;10788;47.930;9.766;2024-02-26T10:11:24;11.00;99.90
21261;DHT22;10788;47.930;9.766;2024-02-26T10:13:50;10.80;99.90
21261;DHT22;10788;47.930;9.766;2024-02-26T10:16:16;10.60;99.90
21261;DHT22;10788;47.930;9.766;2024-02-26T10:19:00;10.50;99.90
21261;DHT22;10788;47.930;9.766;2024-02-26T10:21:26;10.40;99.90
21261;DHT22;10788;47.930;9.766;2024-02-26T10:23:52;10.40;99.90
21261;DHT22;10788;47.930;9.766;2024-02-26T10:26:17;10.40;99.90
21261;DHT22;10788;47.930;9.766;2024-02-26T10:28:45;10.30;99.90
21261;DHT22;10788;47.930;9.766;2024-02-26T10:31:11;10.20;99.90
21261;DHT22;10788;47.930;9.766;2024-02-26T10:33:38;10.20;99.90
21261;DHT22;10788;47.930;9.766;2024-02-26T10:36:05;10.20;99.90
21261;DHT22;10788;47.930;9.766;2024-02-26T10:38:32;10.20;99.90
21261;DHT22;10788;47.930;9.766;2024-02-26T10:40:58;10.20;99.90
21261;DHT22;10788;47.930;9.766;2024-02-26T10:43:25;10.10;99.90
21261;DHT22;10788;47.930;9.766;2024-02-26T10:45:51;10.10;99.90
21261;DHT22;10788;47.930;9.766;2024-02-26T10:48:17;10.00;99.90
21261;DHT22;10788;47.930;9.766;2024-02-26T10:50:44;9.90;99.90
21261;DHT22;10788;47.930;9.766;2024-02-26T10:53:15;9.90;99.90
21261;DHT22;10788;47.930;9.766;2024-02-26T10:55:44;9.90;99.90
21261;DHT22;10788;47.930;9.766;2024-02-26T10:58:12;10.00;99.90
21261;DHT22;10788;47.930;9.766;2024-02-26T11:00:40;9.90;99.90
21261;DHT22;10788;47.930;9.766;2024-02-26T11:03:06;9.90;99.90
21261;DHT22;10788;47.930;9.766;2024-02-26T11:05:35;9.90;99.90
21261;DHT22;10788;47.930;9.766;2024-02-26T11:08:04;9.80;99.90
21261;DHT22;10788;47.930;9.766;2024-02-26T11:10:31;9.80;99.90
21261;DHT22;10788;47.930;9.766;2024-02-26T11:12:59;9.90;99.90
21261;DHT22;10788;47.930;9.766;2024-02-26T11:15:28;9.90;99.90
21261;DHT22;10788;47.930;9.766;2024-02-26T11:17:55;10.00;99.90
21261;DHT22;10788;47.930;9.766;2024-02-26T11:20:23;10.00;99.90
21261;DHT22;10788;47.930;9.766;2024-02-26T11:22:49;10.10;99.90
21261;DHT22;10788;47.930;9.766;2024-02-26T11:25:15;10.20;99.90
21261;DHT22;10788;47.930;9.766;2024-02-26T11:27:52;10.10;99.90
21261;DHT22;10788;47.930;9.766;2024-02-26T11:30:19;10.20;99.90
21261;DHT22;10788;47.930;9.766;2024-02-26T11:32:46;10.20;99.90
21261;DHT22;10788;47.930;9.766;2024-02-26T11:35:13;10.20;99.90
21261;DHT22;10788;47.930;9.766;2024-02-26T11:37:41;10.20;99.90
21261;DHT22;10788;47.930;9.766;2024-02-26T11:40:11;10.20;99.90
21261;DHT22;10788;47.930;9.766;2024-02-26T11:42:44;10.20;99.90
21261;DHT22;10788;47.930;9.766;2024-02-26T11:48:24;10.20;99.90
21261;DHT22;10788;47.930;9.766;2024-02-26T11:50:52;10.20;99.90
21261;DHT22;10788;47.930;9.766;2024-02-26T11:53:31;10.20;99.90
21261;DHT22;10788;47.930;9.766;2024-02-26T11:59:09;10.20;99.90
21261;DHT22;10788;47.930;9.766;2024-02-26T12:04:02;10.20;99.90
21261;DHT22;10788;47.930;9.766;2024-02-26T12:06:30;10.20;99.90
21261;DHT22;10788;47.930;9.766;2024-02-26T12:08:56;10.20;99.90
21261;DHT22;10788;47.930;9.766;2024-02-26T12:11:22;10.20;99.90
21261;DHT22;10788;47.930;9.766;2024-02-26T12:13:48;10.20;99.90
21261;DHT22;10788;47.930;9.766;2024-02-26T12:16:38;10.10;99.90
21261;DHT22;10788;47.930;9.766;2024-02-26T12:19:05;10.10;99.90
21261;DHT22;10788;47.930;9.766;2024-02-26T12:21:34;10.10;99.90
21261;DHT22;10788;47.930;9.766;2024-02-26T12:24:14;10.10;99.90
21261;DHT22;10788;47.930;9.766;2024-02-26T12:26:41;10.10;99.90
21261;DHT22;10788;47.930;9.766;2024-02-26T12:29:07;10.00;99.90
21261;DHT22;10788;47.930;9.766;2024-02-26T12:31:33;9.90;99.90
21261;DHT22;10788;47.930;9.766;2024-02-26T12:34:00;9.90;99.90
21261;DHT22;10788;47.930;9.766;2024-02-26T12:36:26;9.90;99.90
21261;DHT22;10788;47.930;9.766;2024-02-26T12:38:52;9.80;99.90
21261;DHT22;10788;47.930;9.766;2024-02-26T12:41:18;9.80;99.90
21261;DHT22;10788;47.930;9.766;2024-02-26T12:43:44;9.80;99.90
21261;DHT22;10788;47.930;9.766;2024-02-26T12:46:10;9.70;99.90
21261;DHT22;10788;47.930;9.766;2024-02-26T12:48:36;9.70;99.90
21261;DHT22;10788;47.930;9.766;2024-02-26T12:51:03;9.70;99.90
21261;DHT22;10788;47.930;9.766;2024-02-26T12:53:30;9.80;99.90
21261;DHT22;10788;47.930;9.766;2024-02-26T12:55:57;9.80;99.90
21261;DHT22;10788;47.930;9.766;2024-02-26T12:58:23;9.90;99.90
21261;DHT22;10788;47.930;9.766;2024-02-26T13:00:53;9.90;99.90
21261;DHT22;10788;47.930;9.766;2024-02-26T13:03:20;10.00;99.90
21261;DHT22;10788;47.930;9.766;2024-02-26T13:05:46;9.90;99.90
21261;DHT22;10788;47.930;9.766;2024-02-26T13:08:19;9.90;99.90
21261;DHT22;10788;47.930;9.766;2024-02-26T13:10:48;9.90;99.90
21261;DHT22;10788;47.930;9.766;2024-02-26T13:13:19;10.00;99.90
21261;DHT22;10788;47.930;9.766;2024-02-26T13:15:45;10.00;99.90
21261;DHT22;10788;47.930;9.766;2024-02-26T13:18:13;10.00;99.90
21261;DHT22;10788;47.930;9.766;2024-02-26T13:20:39;10.00;99.90
21261;DHT22;10788;47.930;9.766;2024-02-26T13:23:12;10.10;99.90
21261;DHT22;10788;47.930;9.766;2024-02-26T13:25:38;10.10;99.90
21261;DHT22;10788;47.930;9.766;2024-02-26T13:28:25;10.10;99.90
21261;DHT22;10788;47.930;9.766;2024-02-26T13:30:54;10.20;99.90
21261;DHT22;10788;47.930;9.766;2024-02-26T13:33:25;10.20;99.90
21261;DHT22;10788;47.930;9.766;2024-02-26T13:35:52;10.30;99.90
21261;DHT22;10788;47.930;9.766;2024-02-26T13:38:18;10.30;99.90
21261;DHT22;10788;47.930;9.766;2024-02-26T13:40:44;10.40;99.90
21261;DHT22;10788;47.930;9.766;2024-02-26T13:43:09;10.40;99.90
21261;DHT22;10788;47.930;9.766;2024-02-26T13:45:36;10.40;99.90
21261;DHT22;10788;47.930;9.766;2024-02-26T13:48:07;10.50;99.90
21261;DHT22;10788;47.930;9.766;2024-02-26T13:50:35;10.50;99.90
21261;DHT22;10788;47.930;9.766;2024-02-26T13:53:01;10.50;99.90
21261;DHT22;10788;47.930;9.766;2024-02-26T13:55:27;10.50;99.90
21261;DHT22;10788;47.930;9.766;2024-02-26T13:57:57;10.50;99.90
21261;DHT22;10788;47.930;9.766;2024-02-26T14:00:24;10.50;99.90
21261;DHT22;10788;47.930;9.766;2024-02-26T14:02:50;10.50;99.90
21261;DHT22;10788;47.930;9.766;2024-02-26T14:05:16;10.50;99.90
21261;DHT22;10788;47.930;9.766;2024-02-26T14:07:42;10.50;99.90
21261;DHT22;10788;47.930;9.766;2024-02-26T14:10:12;10.50;99.90
21261;DHT22;10788;47.930;9.766;2024-02-26T14:12:38;10.50;99.90
21261;DHT22;10788;47.930;9.766;2024-02-26T14:15:06;10.50;99.90
21261;DHT22;10788;47.930;9.766;2024-02-26T14:17:33;10.50;99.90
21261;DHT22;10788;47.930;9.766;2024-02-26T14:19:59;10.40;99.90
21261;DHT22;10788;47.930;9.766;2024-02-26T14:22:25;10.40;99.90
21261;DHT22;10788;47.930;9.766;2024-02-26T14:24:52;10.40;99.90
21261;DHT22;10788;47.930;9.766;2024-02-26T14:27:18;10.40;99.90
21261;DHT22;10788;47.930;9.766;2024-02-26T14:29:46;10.40;99.90
21261;DHT22;10788;47.930;9.766;2024-02-26T14:32:12;10.40;99.90
21261;DHT22;10788;47.930;9.766;2024-02-26T14:34:38;10.40;99.90
21261;DHT22;10788;47.930;9.766;2024-02-26T14:37:05;10.30;99.90
21261;DHT22;10788;47.930;9.766;2024-02-26T14:39:34;10.40;99.90
21261;DHT22;10788;47.930;9.766;2024-02-26T14:42:00;10.40;99.90
21261;DHT22;10788;47.930;9.766;2024-02-26T14:44:26;10.40;99.90
21261;DHT22;10788;47.930;9.766;2024-02-26T14:46:52;10.30;99.90
21261;DHT22;10788;47.930;9.766;2024-02-26T14:49:18;10.30;99.90
21261;DHT22;10788;47.930;9.766;2024-02-26T14:51:44;10.40;99.90
21261;DHT22;10788;47.930;9.766;2024-02-26T14:54:14;10.50;99.90
21261;DHT22;10788;47.930;9.766;2024-02-26T14:56:40;10.50;99.90
21261;DHT22;10788;47.930;9.766;2024-02-26T14:59:06;10.40;99.90
21261;DHT22;10788;47.930;9.766;2024-02-26T15:01:32;10.40;99.90
21261;DHT22;10788;47.930;9.766;2024-02-26T15:03:58;10.30;99.90
21261;DHT22;10788;47.930;9.766;2024-02-26T15:06:25;10.30;99.90
21261;DHT22;10788;47.930;9.766;2024-02-26T15:08:51;10.20;99.90
21261;DHT22;10788;47.930;9.766;2024-02-26T15:11:17;10.10;99.90
21261;DHT22;10788;47.930;9.766;2024-02-26T15:13:43;10.10;99.90
21261;DHT22;10788;47.930;9.766;2024-02-26T15:16:08;10.00;99.90
21261;DHT22;10788;47.930;9.766;2024-02-26T15:18:36;10.00;99.90
21261;DHT22;10788;47.930;9.766;2024-02-26T15:21:02;10.00;99.90
21261;DHT22;10788;47.930;9.766;2024-02-26T15:23:28;9.90;99.90
21261;DHT22;10788;47.930;9.766;2024-02-26T15:25:54;10.00;99.90
21261;DHT22;10788;47.930;9.766;2024-02-26T15:28:20;9.90;99.90
21261;DHT22;10788;47.930;9.766;2024-02-26T15:30:46;9.80;99.90
21261;DHT22;10788;47.930;9.766;2024-02-26T15:33:13;9.80;99.90
21261;DHT22;10788;47.930;9.766;2024-02-26T15:35:39;9.80;99.90
21261;DHT22;10788;47.930;9.766;2024-02-26T15:38:05;9.90;99.90
21261;DHT22;10788;47.930;9.766;2024-02-26T15:40:31;10.00;99.90
21261;DHT22;10788;47.930;9.766;2024-02-26T15:42:56;10.00;99.90
21261;DHT22;10788;47.930;9.766;2024-02-26T15:45:22;10.00;99.90
21261;DHT22;10788;47.930;9.766;2024-02-26T15:47:50;10.00;99.90